Time;durP1;ratioP1;P1;durP2;ratioP2;P2;SDS_P1;SDS_P2;PMS_P1;PMS_P2;Temp;Humidity;BMP_temperature;BMP_pressure;BME280_temperature;BME280_humidity;BME280_pressure;Samples;Min_cycle;Max_cycle;Signal;HPM_P1;HPM_P2
2022/11/16 00:02:04;;;;;;;;;;;;;;;11.96;78.08;97032.88;7387107;19;19922;-75
2022/11/16 00:04:31;;;;;;;;;;;;;;;12.07;78.04;97034.16;7385975;19;19926;-76
2022/11/16 00:06:58;;;;;;;;;;;;;;;11.97;78.39;97031.06;7387215;19;19927;-76
2022/11/16 00:09:27;;;;;;;;;;;;;;;12.07;78.23;97037.63;7387583;19;20362;-76
2022/11/16 00:11:55;;;;;;;;;;;;;;;12.00;78.19;97038.59;7383375;19;20700;-76
2022/11/16 00:14:22;;;;;;;;;;;;;;;12.03;78.13;97040.84;7383653;19;19927;-76
2022/11/16 00:16:49;;;;;;;;;;;;;;;11.98;78.49;97032.66;7383957;19;19927;-76
2022/11/16 00:19:16;;;;;;;;;;;;;;;12.10;78.19;97041.72;7385789;19;19952;-76
2022/11/16 00:21:42;;;;;;;;;;;;;;;12.14;78.06;97037.66;7385978;19;20283;-76
2022/11/16 00:24:11;;;;;;;;;;;;;;;12.32;76.84;97046.88;7383550;19;19927;-76
2022/11/16 00:26:37;;;;;;;;;;;;;;;12.25;76.77;97044.22;7384756;19;19947;-75
2022/11/16 00:29:04;;;;;;;;;;;;;;;12.03;77.59;97052.31;7387738;19;19922;-76
2022/11/16 00:31:30;;;;;;;;;;;;;;;11.98;77.69;97049.41;7389316;19;19918;-75
2022/11/16 00:33:57;;;;;;;;;;;;;;;11.97;77.71;97052.25;7383763;19;20304;-74
2022/11/16 00:36:24;;;;;;;;;;;;;;;11.97;77.88;97053.06;7385234;19;19919;-74
2022/11/16 00:38:51;;;;;;;;;;;;;;;11.93;78.10;97051.00;7388695;19;19911;-75
2022/11/16 00:41:18;;;;;;;;;;;;;;;11.85;78.33;97050.13;7384014;19;19923;-74
2022/11/16 00:43:44;;;;;;;;;;;;;;;11.83;78.63;97048.69;7384763;19;19938;-74
2022/11/16 00:46:11;;;;;;;;;;;;;;;11.94;78.38;97039.41;7385014;19;19922;-75
2022/11/16 00:48:37;;;;;;;;;;;;;;;12.06;77.60;97037.84;7383566;19;19923;-74
2022/11/16 00:51:04;;;;;;;;;;;;;;;12.09;77.42;97034.78;7385377;19;19922;-74
2022/11/16 00:53:31;;;;;;;;;;;;;;;11.99;77.39;97032.50;7387114;19;19930;-74
2022/11/16 00:55:58;;;;;;;;;;;;;;;11.97;77.13;97026.56;7383527;19;20347;-74
2022/11/16 00:58:29;;;;;;;;;;;;;;;12.06;76.96;97025.38;7381985;19;19962;-75
2022/11/16 01:01:06;;;;;;;;;;;;;;;11.93;77.70;97024.50;7384913;19;19926;-75
2022/11/16 01:03:34;;;;;;;;;;;;;;;11.80;78.20;97015.47;7394547;19;19918;-74
2022/11/16 01:06:04;;;;;;;;;;;;;;;11.80;78.33;97018.09;7393023;19;19931;-74
2022/11/16 01:08:31;;;;;;;;;;;;;;;11.73;78.48;97011.94;7387158;19;19940;-75
2022/11/16 01:12:07;;;;;;;;;;;;;;;11.83;78.68;97019.56;7391950;19;19925;-75
2022/11/16 01:13:45;;;;;;;;;;;;;;;11.92;77.99;97012.28;7387806;19;19926;-75
2022/11/16 01:16:13;;;;;;;;;;;;;;;11.94;77.80;97002.28;7386161;19;19918;-75
2022/11/16 01:18:40;;;;;;;;;;;;;;;11.96;77.67;97008.22;7386198;19;19919;-75
2022/11/16 01:21:07;;;;;;;;;;;;;;;11.84;78.23;96999.97;7389822;19;19934;-75
2022/11/16 01:23:34;;;;;;;;;;;;;;;11.95;78.00;96998.63;7386718;19;19980;-76
2022/11/16 01:26:01;;;;;;;;;;;;;;;11.97;77.71;96993.94;7388394;19;21111;-75
2022/11/16 01:28:31;;;;;;;;;;;;;;;11.91;77.92;96989.44;7389168;19;20356;-75
2022/11/16 01:30:59;;;;;;;;;;;;;;;11.73;78.44;96985.47;7389561;19;20400;-75
2022/11/16 01:33:27;;;;;;;;;;;;;;;11.81;78.39;96985.28;7386772;19;19921;-75
2022/11/16 01:35:54;;;;;;;;;;;;;;;11.86;77.81;96992.69;7390035;19;19935;-76
2022/11/16 01:38:22;;;;;;;;;;;;;;;11.75;77.68;96991.38;7388021;19;19925;-75
2022/11/16 01:40:55;;;;;;;;;;;;;;;11.68;77.94;96990.53;7387571;19;19923;-75
2022/11/16 01:43:23;;;;;;;;;;;;;;;11.79;77.68;96992.59;7390349;19;20342;-75
2022/11/16 01:45:55;;;;;;;;;;;;;;;11.75;77.96;96985.28;7389437;19;21702;-75
2022/11/16 01:48:23;;;;;;;;;;;;;;;11.73;78.30;96984.66;7381552;19;20298;-75
2022/11/16 01:50:50;;;;;;;;;;;;;;;11.82;78.09;96989.59;7387156;19;19952;-75
2022/11/16 01:53:17;;;;;;;;;;;;;;;11.83;78.06;96983.25;7388901;19;19978;-75
2022/11/16 01:55:48;;;;;;;;;;;;;;;11.81;78.05;96992.44;7383127;19;19926;-75
2022/11/16 01:58:26;;;;;;;;;;;;;;;11.87;77.70;96986.34;7385033;19;19918;-75
2022/11/16 02:00:58;;;;;;;;;;;;;;;11.92;77.56;96983.13;7388305;19;19962;-75
2022/11/16 02:03:36;;;;;;;;;;;;;;;11.89;77.50;96978.22;7384700;19;19994;-75
2022/11/16 02:06:06;;;;;;;;;;;;;;;11.98;77.27;96963.75;7384085;19;19942;-75
2022/11/16 02:11:23;;;;;;;;;;;;;;;11.81;78.06;96974.69;7386328;19;19923;-75
2022/11/16 02:13:53;;;;;;;;;;;;;;;11.81;78.04;96974.69;7382136;19;19926;-75
2022/11/16 02:16:19;;;;;;;;;;;;;;;11.78;78.27;96974.28;7386269;19;19918;-75
2022/11/16 02:18:47;;;;;;;;;;;;;;;11.67;78.70;96972.19;7385142;19;19919;-75
2022/11/16 02:21:20;;;;;;;;;;;;;;;11.75;78.38;96972.03;7385817;19;19923;-75
2022/11/16 02:23:55;;;;;;;;;;;;;;;11.73;78.31;96966.09;7385969;19;19952;-75
2022/11/16 02:26:41;;;;;;;;;;;;;;;11.80;78.20;96965.13;7387584;19;19918;-76
2022/11/16 02:29:10;;;;;;;;;;;;;;;11.79;78.05;96970.59;7387737;19;19918;-74
2022/11/16 02:31:38;;;;;;;;;;;;;;;11.86;77.70;96966.19;7386856;19;19931;-75
2022/11/16 02:34:05;;;;;;;;;;;;;;;11.85;77.59;96964.53;7385754;19;19948;-76
2022/11/16 02:36:31;;;;;;;;;;;;;;;11.75;78.10;96962.25;7387650;19;19926;-74
2022/11/16 02:39:03;;;;;;;;;;;;;;;11.65;78.40;96959.13;7387408;19;19937;-75
2022/11/16 02:41:31;;;;;;;;;;;;;;;11.69;78.25;96960.38;7390705;19;19922;-75
2022/11/16 02:44:06;;;;;;;;;;;;;;;11.59;78.61;96958.09;7389861;19;19923;-74
2022/11/16 02:46:36;;;;;;;;;;;;;;;11.62;78.37;96962.19;7386285;19;19923;-74
2022/11/16 02:49:06;;;;;;;;;;;;;;;11.80;77.77;96973.06;7388140;19;19932;-75
2022/11/16 02:51:35;;;;;;;;;;;;;;;11.76;77.95;96966.50;7386959;19;20439;-75
2022/11/16 02:54:11;;;;;;;;;;;;;;;11.72;77.89;96973.25;7387401;19;19919;-75
2022/11/16 02:57:49;;;;;;;;;;;;;;;11.83;77.60;96975.31;7386742;19;20306;-75
2022/11/16 03:00:34;;;;;;;;;;;;;;;11.76;77.95;96960.41;7391308;19;19925;-75
2022/11/16 03:03:00;;;;;;;;;;;;;;;11.74;77.87;96965.06;7387650;19;19982;-74
2022/11/16 03:05:31;;;;;;;;;;;;;;;11.69;78.37;96963.03;7379709;19;19933;-74
2022/11/16 03:08:06;;;;;;;;;;;;;;;11.72;78.53;96962.63;7385705;19;19926;-74
2022/11/16 03:13:23;;;;;;;;;;;;;;;11.71;78.58;96952.22;7382924;19;19931;-74
2022/11/16 03:15:50;;;;;;;;;;;;;;;11.69;78.75;96952.44;7386177;19;19944;-74
2022/11/16 03:18:16;;;;;;;;;;;;;;;11.61;79.04;96958.72;7385700;19;20457;-74
2022/11/16 03:20:43;;;;;;;;;;;;;;;11.71;79.07;96962.81;7382048;19;19937;-75
2022/11/16 03:23:10;;;;;;;;;;;;;;;11.74;78.75;96950.03;7379550;19;19914;-74
2022/11/16 03:25:44;;;;;;;;;;;;;;;11.71;78.95;96960.19;7379464;19;19923;-75
2022/11/16 03:28:16;;;;;;;;;;;;;;;11.77;78.74;96962.03;7381266;19;19926;-75
2022/11/16 03:30:46;;;;;;;;;;;;;;;11.84;78.61;96961.03;7379567;19;20334;-75
2022/11/16 03:33:29;;;;;;;;;;;;;;;11.88;78.26;96947.44;7385156;19;22444;-75
2022/11/16 03:35:56;;;;;;;;;;;;;;;11.82;78.47;96947.19;7379834;19;19930;-74
2022/11/16 03:38:24;;;;;;;;;;;;;;;11.71;78.72;96949.56;7381187;19;20608;-74
2022/11/16 03:40:51;;;;;;;;;;;;;;;11.78;79.12;96945.94;7384275;19;19967;-75
2022/11/16 03:43:18;;;;;;;;;;;;;;;11.79;79.05;96939.63;7385621;19;20335;-75
2022/11/16 03:45:45;;;;;;;;;;;;;;;11.76;79.15;96947.16;7377894;19;19915;-75
2022/11/16 03:48:12;;;;;;;;;;;;;;;11.61;79.55;96947.28;7381557;19;20536;-75
2022/11/16 03:50:39;;;;;;;;;;;;;;;11.70;79.39;96930.22;7385397;19;19923;-74
2022/11/16 03:53:07;;;;;;;;;;;;;;;11.69;79.49;96936.53;7384221;19;20386;-75
2022/11/16 03:55:35;;;;;;;;;;;;;;;11.72;79.37;96922.91;7378380;19;19952;-75
2022/11/16 03:58:02;;;;;;;;;;;;;;;11.74;79.21;96920.03;7381827;19;19956;-75
2022/11/16 04:00:29;;;;;;;;;;;;;;;11.82;78.95;96927.81;7383570;19;19918;-75
2022/11/16 04:02:55;;;;;;;;;;;;;;;11.74;79.21;96931.47;7380975;19;19940;-75
2022/11/16 04:25:11;;;;;;;;;;;;;;;12.05;77.77;96975.22;7377083;19;19930;-75
2022/11/16 04:30:24;;;;;;;;;;;;;;;12.16;77.65;96990.53;7382157;19;19986;-74
2022/11/16 04:38:23;;;;;;;;;;;;;;;12.04;77.88;97005.41;7382532;19;19919;-75
2022/11/16 04:40:50;;;;;;;;;;;;;;;11.93;78.28;96998.00;7388631;19;19929;-75
2022/11/16 04:43:16;;;;;;;;;;;;;;;11.81;78.75;96980.00;7388600;19;20911;-74
2022/11/16 04:48:36;;;;;;;;;;;;;;;11.87;79.08;96994.31;7380650;19;20247;-75
2022/11/16 04:51:03;;;;;;;;;;;;;;;11.97;78.95;96992.09;7388001;19;20248;-74
2022/11/16 04:53:30;;;;;;;;;;;;;;;12.15;78.46;96998.69;7387500;19;19914;-75
2022/11/16 04:56:04;;;;;;;;;;;;;;;12.16;78.18;97001.13;7386589;19;19918;-74
2022/11/16 04:58:31;;;;;;;;;;;;;;;11.99;78.30;97007.81;7384757;19;19939;-75
2022/11/16 05:00:59;;;;;;;;;;;;;;;11.96;78.56;97001.09;7388518;19;19919;-75
2022/11/16 05:03:26;;;;;;;;;;;;;;;11.81;79.02;96989.78;7387937;19;19933;-76
2022/11/16 05:05:54;;;;;;;;;;;;;;;11.86;79.03;96990.84;7386329;19;19919;-76
2022/11/16 05:08:20;;;;;;;;;;;;;;;11.98;78.93;96974.38;7385376;19;20529;-76
2022/11/16 05:10:49;;;;;;;;;;;;;;;11.88;79.03;96980.06;7388635;19;19919;-75
2022/11/16 05:13:16;;;;;;;;;;;;;;;11.80;79.23;96973.06;7388742;19;19982;-75
2022/11/16 05:15:46;;;;;;;;;;;;;;;11.88;79.44;96974.75;7382788;19;19923;-75
2022/11/16 05:18:12;;;;;;;;;;;;;;;12.02;79.01;96970.31;7385055;19;20252;-75
2022/11/16 05:21:00;;;;;;;;;;;;;;;12.10;nan;96980.72;7390057;19;20465;-75
2022/11/16 05:26:24;;;;;;;;;;;;;;;12.11;78.32;96985.00;7385055;19;20316;-74
2022/11/16 05:28:52;;;;;;;;;;;;;;;12.04;78.47;96973.59;7388779;19;19927;-75
2022/11/16 05:31:19;;;;;;;;;;;;;;;11.88;78.72;96987.19;7388987;19;20275;-75
2022/11/16 05:33:47;;;;;;;;;;;;;;;11.91;79.04;97000.06;7386783;19;19925;-75
2022/11/16 05:36:14;;;;;;;;;;;;;;;11.93;78.87;97001.47;7387502;19;19937;-75
2022/11/16 05:38:41;;;;;;;;;;;;;;;12.10;78.31;97003.78;7384541;19;19933;-75
2022/11/16 05:41:09;;;;;;;;;;;;;;;12.01;78.58;96997.84;7386391;19;22116;-75
2022/11/16 05:43:35;;;;;;;;;;;;;;;11.89;78.65;97002.06;7387801;19;20415;-75
2022/11/16 05:46:11;;;;;;;;;;;;;;;11.83;78.92;96998.34;7387289;19;19915;-75
2022/11/16 05:48:38;;;;;;;;;;;;;;;11.75;79.00;97001.97;7382388;19;19922;-75
2022/11/16 05:51:05;;;;;;;;;;;;;;;11.72;79.01;96997.09;7387191;19;20545;-74
2022/11/16 05:53:33;;;;;;;;;;;;;;;11.79;79.43;97003.22;7387403;19;19918;-74
2022/11/16 05:55:59;;;;;;;;;;;;;;;11.77;79.25;96996.47;7380603;19;19922;-74
2022/11/16 05:58:27;;;;;;;;;;;;;;;11.69;79.22;96989.53;7382281;19;19915;-74
2022/11/16 06:00:56;;;;;;;;;;;;;;;11.70;79.23;96990.34;7381344;19;19927;-75
2022/11/16 06:03:23;;;;;;;;;;;;;;;11.76;79.51;97000.97;7384084;19;19927;-74
2022/11/16 06:05:53;;;;;;;;;;;;;;;11.79;79.30;96997.91;7383903;19;19922;-75
2022/11/16 06:08:19;;;;;;;;;;;;;;;11.72;79.13;96991.78;7384697;19;19911;-74
2022/11/16 06:10:48;;;;;;;;;;;;;;;11.67;79.16;96993.38;7385041;19;19922;-74
2022/11/16 06:13:15;;;;;;;;;;;;;;;11.65;79.21;96996.22;7386984;19;19927;-74
2022/11/16 06:15:42;;;;;;;;;;;;;;;11.62;79.31;96999.28;7386183;19;19922;-74
2022/11/16 06:18:16;;;;;;;;;;;;;;;11.56;79.41;96995.56;7384433;19;19956;-74
2022/11/16 06:20:43;;;;;;;;;;;;;;;11.52;79.30;96994.31;7383159;19;19926;-74
2022/11/16 06:23:10;;;;;;;;;;;;;;;11.51;79.50;97003.28;7378829;19;19918;-74
2022/11/16 06:25:37;;;;;;;;;;;;;;;11.52;79.38;97007.56;7377184;19;19950;-75
2022/11/16 06:28:04;;;;;;;;;;;;;;;11.70;79.51;97014.19;7380333;19;19974;-74
2022/11/16 06:30:34;;;;;;;;;;;;;;;11.84;79.25;97006.09;7384780;19;19918;-74
2022/11/16 06:33:02;;;;;;;;;;;;;;;11.82;79.00;97024.03;7377939;19;19936;-74
2022/11/16 06:35:28;;;;;;;;;;;;;;;11.85;79.26;97020.19;7377031;19;20357;-74
2022/11/16 06:37:56;;;;;;;;;;;;;;;11.84;79.17;97018.53;7384951;19;19922;-74
2022/11/16 06:40:23;;;;;;;;;;;;;;;11.93;78.88;97019.19;7387272;19;19944;-74
2022/11/16 06:42:50;;;;;;;;;;;;;;;12.03;78.56;97023.13;7384190;19;19919;-74
2022/11/16 06:45:17;;;;;;;;;;;;;;;12.15;77.87;97018.06;7381297;19;19925;-74
2022/11/16 06:47:49;;;;;;;;;;;;;;;12.12;77.98;97033.56;7385435;19;20343;-74
2022/11/16 06:50:19;;;;;;;;;;;;;;;12.17;77.87;97031.13;7386254;19;20314;-74
2022/11/16 06:52:47;;;;;;;;;;;;;;;12.07;78.05;97037.63;7386961;19;19936;-74
2022/11/16 06:55:15;;;;;;;;;;;;;;;12.09;77.83;97037.44;7383773;19;19918;-74
2022/11/16 06:57:41;;;;;;;;;;;;;;;12.10;77.66;97038.25;7384563;19;19918;-74
2022/11/16 07:00:09;;;;;;;;;;;;;;;11.88;78.39;97037.53;7385549;19;19922;-74
2022/11/16 07:02:37;;;;;;;;;;;;;;;11.93;78.32;97045.69;7387366;19;19918;-74
2022/11/16 07:05:06;;;;;;;;;;;;;;;11.89;78.58;97049.78;7385921;19;19917;-74
2022/11/16 07:07:32;;;;;;;;;;;;;;;11.84;78.57;97045.84;7386051;19;19998;-74
2022/11/16 07:10:00;;;;;;;;;;;;;;;11.86;78.99;97051.78;7387775;19;19918;-74
2022/11/16 07:12:27;;;;;;;;;;;;;;;11.83;78.95;97046.03;7384365;19;20361;-74
2022/11/16 07:14:55;;;;;;;;;;;;;;;11.95;78.88;97055.09;7380328;19;19915;-74
2022/11/16 07:17:23;;;;;;;;;;;;;;;11.98;78.74;97065.31;7388144;19;19919;-74
2022/11/16 07:19:51;;;;;;;;;;;;;;;12.01;78.67;97069.41;7386888;19;19978;-74
2022/11/16 07:22:18;;;;;;;;;;;;;;;11.88;78.86;97070.16;7386563;19;20290;-74
2022/11/16 07:24:47;;;;;;;;;;;;;;;11.90;79.05;97081.38;7385368;19;19911;-74
2022/11/16 07:27:13;;;;;;;;;;;;;;;11.95;79.05;97080.78;7387452;19;19925;-74
2022/11/16 07:29:43;;;;;;;;;;;;;;;11.99;79.04;97082.84;7389619;19;19944;-73
2022/11/16 07:32:32;;;;;;;;;;;;;;;12.14;78.79;97084.53;7383035;19;19919;-74
2022/11/16 07:35:11;;;;;;;;;;;;;;;12.19;78.67;97074.16;7383776;19;19923;-74
2022/11/16 07:37:38;;;;;;;;;;;;;;;12.13;78.70;97078.41;7384704;19;19923;-75
2022/11/16 07:40:06;;;;;;;;;;;;;;;12.09;78.94;97079.84;7383136;19;20347;-74
2022/11/16 07:42:34;;;;;;;;;;;;;;;12.22;78.84;97087.84;7386096;19;19950;-74
2022/11/16 07:45:33;;;;;;;;;;;;;;;12.19;78.92;97093.56;7383653;19;19922;-74
2022/11/16 07:48:05;;;;;;;;;;;;;;;12.24;78.73;97098.25;7382231;19;19915;-74
2022/11/16 07:50:49;;;;;;;;;;;;;;;12.22;79.07;97097.66;7388585;19;19933;-74
2022/11/16 07:53:18;;;;;;;;;;;;;;;12.30;79.31;97100.94;7384464;19;19952;-74
2022/11/16 07:55:50;;;;;;;;;;;;;;;12.37;79.38;97100.16;7383618;19;19923;-74
2022/11/16 07:58:16;;;;;;;;;;;;;;;12.44;79.43;97104.47;7389093;19;19925;-74
2022/11/16 08:00:43;;;;;;;;;;;;;;;12.53;79.16;97105.09;7385834;19;20699;-74
2022/11/16 08:03:13;;;;;;;;;;;;;;;12.68;78.54;97099.63;7383354;19;19974;-74
2022/11/16 08:05:40;;;;;;;;;;;;;;;12.71;77.92;97107.19;7380123;19;19925;-74
2022/11/16 08:08:07;;;;;;;;;;;;;;;12.84;77.75;97101.09;7386342;19;19915;-74
2022/11/16 08:10:35;;;;;;;;;;;;;;;12.82;77.63;97103.13;7384038;19;19922;-74
2022/11/16 08:13:02;;;;;;;;;;;;;;;12.86;77.11;97099.06;7381801;19;19922;-74
2022/11/16 08:15:29;;;;;;;;;;;;;;;12.94;77.10;97104.19;7381774;19;20240;-74
2022/11/16 08:17:59;;;;;;;;;;;;;;;12.98;77.07;97105.44;7385808;19;19930;-74
2022/11/16 08:20:27;;;;;;;;;;;;;;;13.11;76.85;97105.44;7384443;19;19983;-74
2022/11/16 08:22:57;;;;;;;;;;;;;;;13.06;77.18;97104.41;7382023;19;19915;-74
2022/11/16 08:25:24;;;;;;;;;;;;;;;13.02;76.77;97100.53;7383801;19;20021;-75
2022/11/16 08:27:50;;;;;;;;;;;;;;;12.89;76.93;97102.13;7380998;19;19948;-74
2022/11/16 08:30:19;;;;;;;;;;;;;;;12.84;76.68;97103.75;7381994;19;19915;-74
2022/11/16 08:32:45;;;;;;;;;;;;;;;12.89;76.70;97104.78;7381420;19;20278;-74
2022/11/16 08:35:14;;;;;;;;;;;;;;;13.06;76.70;97110.53;7382689;19;19944;-74
2022/11/16 08:37:41;;;;;;;;;;;;;;;13.14;76.76;97110.34;7375468;19;19950;-74
2022/11/16 08:40:08;;;;;;;;;;;;;;;13.02;76.06;97104.00;7379895;19;19918;-74
2022/11/16 08:42:37;;;;;;;;;;;;;;;13.11;76.24;97105.44;7382995;19;19911;-75
2022/11/16 08:45:09;;;;;;;;;;;;;;;13.22;76.66;97103.19;7384550;19;19935;-74
2022/11/16 08:47:36;;;;;;;;;;;;;;;13.38;76.50;97102.84;7386507;19;19927;-74
2022/11/16 08:50:04;;;;;;;;;;;;;;;13.42;76.33;97109.34;7389936;19;19922;-74
2022/11/16 08:52:31;;;;;;;;;;;;;;;13.42;75.91;97106.69;7389840;19;20021;-74
2022/11/16 08:54:59;;;;;;;;;;;;;;;13.52;75.84;97107.09;7385844;19;20301;-74
2022/11/16 08:57:26;;;;;;;;;;;;;;;13.46;75.44;97112.44;7387188;19;19922;-74
2022/11/16 08:59:56;;;;;;;;;;;;;;;13.48;75.23;97121.00;7382848;19;19950;-74
2022/11/16 09:02:26;;;;;;;;;;;;;;;13.52;75.51;97124.91;7384655;19;19934;-75
2022/11/16 09:04:52;;;;;;;;;;;;;;;13.51;75.65;97134.72;7386774;19;20261;-74
2022/11/16 09:07:19;;;;;;;;;;;;;;;13.53;75.60;97134.50;7386710;19;19940;-74
2022/11/16 09:09:47;;;;;;;;;;;;;;;13.52;75.78;97132.88;7384675;19;20380;-74
2022/11/16 09:12:13;;;;;;;;;;;;;;;13.48;75.66;97131.63;7385848;19;19927;-75
2022/11/16 09:14:40;;;;;;;;;;;;;;;13.47;75.63;97128.16;7381064;19;20325;-75
2022/11/16 09:17:06;;;;;;;;;;;;;;;13.35;75.64;97130.63;7383268;19;19927;-75
2022/11/16 09:19:33;;;;;;;;;;;;;;;13.33;75.66;97131.84;7385263;19;19922;-74
2022/11/16 09:21:59;;;;;;;;;;;;;;;13.24;75.88;97128.50;7386290;19;20300;-74
2022/11/16 09:24:26;;;;;;;;;;;;;;;13.15;76.03;97125.25;7390549;19;19922;-74
2022/11/16 09:26:55;;;;;;;;;;;;;;;13.15;75.93;97127.91;7391662;19;19923;-74
2022/11/16 09:29:22;;;;;;;;;;;;;;;13.08;76.39;97121.75;7388608;19;19918;-75
2022/11/16 09:31:48;;;;;;;;;;;;;;;13.13;76.37;97123.81;7389669;19;20292;-75
2022/11/16 09:34:15;;;;;;;;;;;;;;;13.22;75.13;97119.97;7385444;19;19930;-74
2022/11/16 09:36:41;;;;;;;;;;;;;;;13.11;73.71;97124.03;7391866;19;19918;-74
2022/11/16 09:39:11;;;;;;;;;;;;;;;13.17;74.37;97133.84;7392039;19;19918;-74
2022/11/16 09:42:15;;;;;;;;;;;;;;;13.24;73.93;97133.00;7389763;19;19934;-74
2022/11/16 09:44:45;;;;;;;;;;;;;;;13.09;73.50;97130.56;7385596;19;19921;-74
2022/11/16 09:47:20;;;;;;;;;;;;;;;13.08;74.83;97132.38;7379151;19;19922;-75
2022/11/16 09:49:51;;;;;;;;;;;;;;;13.13;76.20;97137.91;7390837;19;19953;-75
2022/11/16 09:52:31;;;;;;;;;;;;;;;13.11;75.62;97131.16;7391581;19;19915;-74
2022/11/16 09:54:58;;;;;;;;;;;;;;;13.10;76.26;97129.53;7389157;19;19929;-74
2022/11/16 09:57:32;;;;;;;;;;;;;;;12.99;76.51;97135.44;7389812;19;19918;-75
2022/11/16 10:00:03;;;;;;;;;;;;;;;12.98;76.05;97141.75;7389786;19;19923;-74
2022/11/16 10:02:40;;;;;;;;;;;;;;;13.13;75.44;97142.41;7387149;19;19922;-74
2022/11/16 10:05:21;;;;;;;;;;;;;;;13.23;75.54;97136.72;7386494;19;19940;-75
2022/11/16 10:07:54;;;;;;;;;;;;;;;13.35;75.17;97138.59;7388150;19;20254;-74
2022/11/16 10:10:26;;;;;;;;;;;;;;;13.46;75.21;97131.84;7385698;19;19923;-75
2022/11/16 10:12:59;;;;;;;;;;;;;;;13.52;75.15;97131.03;7387022;19;19956;-75
2022/11/16 10:15:44;;;;;;;;;;;;;;;13.60;74.75;97128.16;7386733;19;19917;-74
2022/11/16 10:18:14;;;;;;;;;;;;;;;13.74;74.71;97128.13;7385384;19;19947;-74
2022/11/16 10:20:44;;;;;;;;;;;;;;;13.75;74.11;97125.28;7389498;19;19914;-74
2022/11/16 10:23:34;;;;;;;;;;;;;;;13.79;73.89;97131.00;7384780;19;19971;-74
2022/11/16 10:26:09;;;;;;;;;;;;;;;13.77;74.45;97123.25;7381624;19;20744;-75
2022/11/16 10:28:43;;;;;;;;;;;;;;;13.90;74.62;97133.06;7379648;19;19922;-75
2022/11/16 10:31:15;;;;;;;;;;;;;;;14.09;74.80;97120.72;7383057;19;19926;-75
2022/11/16 10:33:42;;;;;;;;;;;;;;;14.31;74.87;97117.78;7385718;19;19921;-76
2022/11/16 10:36:13;;;;;;;;;;;;;;;14.30;73.20;97116.16;7383249;19;19915;-76
2022/11/16 10:38:40;;;;;;;;;;;;;;;14.39;72.31;97115.72;7387587;19;19915;-75
2022/11/16 10:41:17;;;;;;;;;;;;;;;14.46;72.68;97110.38;7385071;19;20394;-75
2022/11/16 10:43:43;;;;;;;;;;;;;;;14.53;72.03;97110.34;7382098;19;19948;-75
2022/11/16 10:46:13;;;;;;;;;;;;;;;14.42;70.96;97103.81;7384612;19;19926;-75
2022/11/16 10:48:42;;;;;;;;;;;;;;;14.23;70.65;97093.06;7385919;19;19918;-75
2022/11/16 10:51:08;;;;;;;;;;;;;;;14.31;70.77;97096.50;7383766;19;19932;-75
2022/11/16 10:53:39;;;;;;;;;;;;;;;14.34;71.23;97088.91;7386268;19;19956;-75
2022/11/16 10:56:12;;;;;;;;;;;;;;;14.50;72.37;97088.44;7386529;19;20438;-75
2022/11/16 10:58:58;;;;;;;;;;;;;;;14.60;72.48;97084.53;7384049;19;19918;-74
2022/11/16 11:01:38;;;;;;;;;;;;;;;14.67;71.80;97080.81;7384770;19;19927;-75
2022/11/16 11:04:11;;;;;;;;;;;;;;;14.52;71.81;97082.09;7386012;19;19923;-76
2022/11/16 11:06:39;;;;;;;;;;;;;;;14.47;71.73;97078.22;7389235;19;19922;-76
2022/11/16 11:09:18;;;;;;;;;;;;;;;14.36;71.73;97078.06;7386200;19;19926;-76
2022/11/16 11:14:41;;;;;;;;;;;;;;;14.17;72.50;97080.59;7384213;19;20127;-76
2022/11/16 11:17:12;;;;;;;;;;;;;;;13.99;72.72;97073.28;7387120;19;19922;-75
2022/11/16 11:19:39;;;;;;;;;;;;;;;14.15;71.73;97076.53;7386746;19;19918;-76
2022/11/16 11:22:08;;;;;;;;;;;;;;;14.17;71.40;97067.31;7386960;19;19918;-75
2022/11/16 11:24:34;;;;;;;;;;;;;;;13.98;69.99;97077.00;7380113;19;19948;-76
2022/11/16 11:27:10;;;;;;;;;;;;;;;14.14;71.15;97070.38;7387836;19;19957;-75
2022/11/16 11:29:37;;;;;;;;;;;;;;;14.27;72.14;97064.22;7388700;19;19926;-76
2022/11/16 11:32:04;;;;;;;;;;;;;;;14.37;72.61;97063.72;7384541;19;19923;-75
2022/11/16 11:34:32;;;;;;;;;;;;;;;14.27;72.96;97061.53;7380331;19;19994;-76
2022/11/16 11:37:00;;;;;;;;;;;;;;;14.23;71.75;97060.31;7384532;19;19923;-75
2022/11/16 11:39:29;;;;;;;;;;;;;;;14.08;72.79;97062.41;7387842;19;19943;-75
2022/11/16 11:42:19;;;;;;;;;;;;;;;14.04;72.56;97070.00;7383095;19;19921;-75
2022/11/16 11:44:59;;;;;;;;;;;;;;;13.98;73.15;97060.19;7380229;19;19918;-75
2022/11/16 11:47:35;;;;;;;;;;;;;;;13.77;72.68;97064.78;7381891;19;19918;-75
2022/11/16 11:50:25;;;;;;;;;;;;;;;13.69;72.50;97061.50;7388308;19;20327;-75
2022/11/16 11:53:10;;;;;;;;;;;;;;;13.53;72.70;97058.28;7388207;19;19947;-75
2022/11/16 11:55:37;;;;;;;;;;;;;;;13.39;74.12;97053.97;7388633;19;19952;-75
2022/11/16 11:58:04;;;;;;;;;;;;;;;13.44;74.05;97061.34;7379934;19;19930;-75
2022/11/16 12:00:37;;;;;;;;;;;;;;;13.37;74.56;97061.34;7382133;19;20285;-75
2022/11/16 12:03:27;;;;;;;;;;;;;;;13.36;73.49;97057.88;7380802;19;19943;-75
2022/11/16 12:06:06;;;;;;;;;;;;;;;13.33;73.28;97057.47;7379300;19;19923;-75
2022/11/16 12:08:44;;;;;;;;;;;;;;;13.29;73.44;97051.72;7380129;19;19940;-75
2022/11/16 12:11:14;;;;;;;;;;;;;;;13.23;73.95;97049.06;7386371;19;20343;-75
2022/11/16 12:13:53;;;;;;;;;;;;;;;13.35;74.77;97052.78;7383295;19;19930;-75
2022/11/16 12:16:26;;;;;;;;;;;;;;;13.53;74.35;97054.78;7381716;19;19919;-75
2022/11/16 12:18:55;;;;;;;;;;;;;;;13.49;75.49;97046.41;7382631;19;19932;-75
2022/11/16 12:21:41;;;;;;;;;;;;;;;13.72;74.86;97045.97;7387635;19;19919;-75
2022/11/16 12:24:20;;;;;;;;;;;;;;;13.77;75.38;97043.50;7384584;19;19934;-75
2022/11/16 12:27:07;;;;;;;;;;;;;;;13.98;74.69;97039.75;7381573;19;20003;-75
2022/11/16 12:29:39;;;;;;;;;;;;;;;14.23;71.67;97037.19;7376884;19;19939;-75
2022/11/16 12:32:24;;;;;;;;;;;;;;;14.61;71.57;97027.59;7379752;19;19926;-75
2022/11/16 12:34:57;;;;;;;;;;;;;;;14.66;71.65;97025.94;7383974;19;19939;-76
2022/11/16 12:37:33;;;;;;;;;;;;;;;14.72;71.78;97026.94;7380648;19;19964;-76
2022/11/16 12:39:59;;;;;;;;;;;;;;;14.59;71.06;97025.19;7381970;19;19922;-75
2022/11/16 12:42:29;;;;;;;;;;;;;;;14.72;71.56;97032.25;7384927;19;19944;-75
2022/11/16 12:45:22;;;;;;;;;;;;;;;14.64;71.59;97029.84;7382352;19;19911;-75
2022/11/16 12:48:12;;;;;;;;;;;;;;;14.85;69.92;97028.66;7382249;19;19914;-75
2022/11/16 12:50:44;;;;;;;;;;;;;;;14.97;69.84;97029.63;7388571;19;19915;-75
2022/11/16 12:53:14;;;;;;;;;;;;;;;15.05;69.58;97028.53;7387844;19;20294;-75
2022/11/16 12:55:54;;;;;;;;;;;;;;;15.04;69.85;97021.59;7382391;19;19919;-75
2022/11/16 12:58:27;;;;;;;;;;;;;;;15.06;69.00;97016.84;7391116;19;19930;-75
2022/11/16 13:00:53;;;;;;;;;;;;;;;15.03;69.28;97015.41;7394834;19;19923;-75
2022/11/16 13:03:39;;;;;;;;;;;;;;;14.96;65.69;97013.88;7393542;19;19954;-75
2022/11/16 13:06:06;;;;;;;;;;;;;;;14.87;67.34;97010.63;7388987;19;19926;-75
2022/11/16 13:08:39;;;;;;;;;;;;;;;14.61;66.99;97011.63;7391242;19;19923;-75
2022/11/16 13:11:13;;;;;;;;;;;;;;;14.87;68.98;97006.13;7392996;19;19926;-75
2022/11/16 13:13:40;;;;;;;;;;;;;;;14.81;70.20;97011.50;7383972;19;19915;-75
2022/11/16 13:16:06;;;;;;;;;;;;;;;14.64;67.98;97012.03;7382732;19;19993;-75
2022/11/16 13:18:34;;;;;;;;;;;;;;;14.65;68.50;97018.19;7388540;19;19923;-75
2022/11/16 13:21:04;;;;;;;;;;;;;;;14.93;69.69;97012.47;7380839;19;19926;-75
2022/11/16 13:23:31;;;;;;;;;;;;;;;14.99;69.76;97008.09;7387284;19;19925;-75
2022/11/16 13:26:02;;;;;;;;;;;;;;;14.98;69.79;97003.78;7382726;19;19926;-75
2022/11/16 13:28:32;;;;;;;;;;;;;;;15.10;69.86;97008.19;7387460;19;19944;-75
2022/11/16 13:31:02;;;;;;;;;;;;;;;15.01;68.44;96998.88;7387983;19;20346;-75
2022/11/16 13:33:31;;;;;;;;;;;;;;;15.04;68.65;97000.28;7389579;19;20296;-76
2022/11/16 13:35:58;;;;;;;;;;;;;;;14.95;68.61;96996.25;7390221;19;19972;-76
2022/11/16 13:38:43;;;;;;;;;;;;;;;14.95;68.78;96990.91;7387303;19;19926;-76
2022/11/16 13:41:24;;;;;;;;;;;;;;;14.83;68.74;96994.28;7387919;19;19922;-76
2022/11/16 13:43:51;;;;;;;;;;;;;;;14.61;67.15;96982.34;7391353;19;20023;-75
2022/11/16 13:46:17;;;;;;;;;;;;;;;14.52;65.58;96989.75;7391153;19;19914;-75
2022/11/16 13:49:04;;;;;;;;;;;;;;;14.39;67.17;96985.34;7390505;19;19927;-75